sensor_id;sensor_type;location;lat;lon;timestamp;P1;durP1;ratioP1;P2;durP2;ratioP2
56567;SDS011;42456;49.956;20.004;2023-05-07T00:00:01;16.60;;;10.70;;
56567;SDS011;42456;49.956;20.004;2023-05-07T00:02:29;19.90;;;11.10;;
56567;SDS011;42456;49.956;20.004;2023-05-07T00:04:57;17.20;;;10.50;;
56567;SDS011;42456;49.956;20.004;2023-05-07T00:07:24;18.90;;;11.60;;
56567;SDS011;42456;49.956;20.004;2023-05-07T00:09:51;19.00;;;11.40;;
56567;SDS011;42456;49.956;20.004;2023-05-07T00:12:18;18.70;;;11.50;;
56567;SDS011;42456;49.956;20.004;2023-05-07T00:14:45;20.80;;;11.50;;
56567;SDS011;42456;49.956;20.004;2023-05-07T00:17:12;20.00;;;12.60;;
56567;SDS011;42456;49.956;20.004;2023-05-07T00:19:38;19.00;;;12.10;;
56567;SDS011;42456;49.956;20.004;2023-05-07T00:22:06;21.50;;;12.80;;
56567;SDS011;42456;49.956;20.004;2023-05-07T00:24:34;21.00;;;12.80;;
56567;SDS011;42456;49.956;20.004;2023-05-07T00:27:01;18.70;;;11.20;;
56567;SDS011;42456;49.956;20.004;2023-05-07T00:29:28;19.50;;;12.40;;
56567;SDS011;42456;49.956;20.004;2023-05-07T00:31:55;19.70;;;12.30;;
56567;SDS011;42456;49.956;20.004;2023-05-07T00:34:22;19.00;;;11.90;;
56567;SDS011;42456;49.956;20.004;2023-05-07T00:36:49;21.00;;;12.20;;
56567;SDS011;42456;49.956;20.004;2023-05-07T00:39:16;20.10;;;12.20;;
56567;SDS011;42456;49.956;20.004;2023-05-07T00:41:43;20.10;;;12.30;;
56567;SDS011;42456;49.956;20.004;2023-05-07T00:44:10;19.90;;;12.80;;
56567;SDS011;42456;49.956;20.004;2023-05-07T00:46:37;23.00;;;13.30;;
56567;SDS011;42456;49.956;20.004;2023-05-07T00:49:04;22.20;;;13.20;;
56567;SDS011;42456;49.956;20.004;2023-05-07T00:51:32;21.10;;;12.70;;
56567;SDS011;42456;49.956;20.004;2023-05-07T00:54:01;19.10;;;12.10;;
56567;SDS011;42456;49.956;20.004;2023-05-07T00:56:29;20.60;;;12.40;;
56567;SDS011;42456;49.956;20.004;2023-05-07T00:58:58;21.10;;;12.60;;
56567;SDS011;42456;49.956;20.004;2023-05-07T01:01:25;20.00;;;11.70;;
56567;SDS011;42456;49.956;20.004;2023-05-07T01:03:53;18.90;;;12.10;;
56567;SDS011;42456;49.956;20.004;2023-05-07T01:06:21;20.20;;;12.80;;
56567;SDS011;42456;49.956;20.004;2023-05-07T01:08:50;23.20;;;12.90;;
56567;SDS011;42456;49.956;20.004;2023-05-07T01:11:19;22.80;;;13.80;;
56567;SDS011;42456;49.956;20.004;2023-05-07T01:13:47;22.00;;;13.70;;
56567;SDS011;42456;49.956;20.004;2023-05-07T01:16:16;23.10;;;13.20;;
56567;SDS011;42456;49.956;20.004;2023-05-07T01:18:43;21.20;;;13.80;;
56567;SDS011;42456;49.956;20.004;2023-05-07T01:21:11;24.60;;;14.50;;
56567;SDS011;42456;49.956;20.004;2023-05-07T01:23:38;22.00;;;13.20;;
56567;SDS011;42456;49.956;20.004;2023-05-07T01:26:06;25.30;;;15.20;;
56567;SDS011;42456;49.956;20.004;2023-05-07T01:28:33;21.80;;;12.80;;
56567;SDS011;42456;49.956;20.004;2023-05-07T01:31:03;20.70;;;12.20;;
56567;SDS011;42456;49.956;20.004;2023-05-07T01:33:33;20.40;;;12.00;;
56567;SDS011;42456;49.956;20.004;2023-05-07T01:36:03;22.10;;;13.00;;
56567;SDS011;42456;49.956;20.004;2023-05-07T01:41:00;19.50;;;11.60;;
56567;SDS011;42456;49.956;20.004;2023-05-07T01:43:28;23.00;;;12.40;;
56567;SDS011;42456;49.956;20.004;2023-05-07T01:45:57;21.70;;;12.40;;
56567;SDS011;42456;49.956;20.004;2023-05-07T01:48:24;23.00;;;12.80;;
56567;SDS011;42456;49.956;20.004;2023-05-07T01:50:51;19.00;;;11.30;;
56567;SDS011;42456;49.956;20.004;2023-05-07T01:53:18;25.20;;;12.70;;
56567;SDS011;42456;49.956;20.004;2023-05-07T01:55:45;22.20;;;12.50;;
56567;SDS011;42456;49.956;20.004;2023-05-07T01:58:12;21.00;;;12.20;;
56567;SDS011;42456;49.956;20.004;2023-05-07T02:00:39;24.90;;;12.50;;
56567;SDS011;42456;49.956;20.004;2023-05-07T02:03:07;23.10;;;12.40;;
56567;SDS011;42456;49.956;20.004;2023-05-07T02:05:34;23.90;;;12.70;;
56567;SDS011;42456;49.956;20.004;2023-05-07T02:08:01;22.10;;;12.20;;
56567;SDS011;42456;49.956;20.004;2023-05-07T02:10:28;23.90;;;11.90;;
56567;SDS011;42456;49.956;20.004;2023-05-07T02:12:55;21.00;;;12.00;;
56567;SDS011;42456;49.956;20.004;2023-05-07T02:15:22;21.20;;;11.30;;
56567;SDS011;42456;49.956;20.004;2023-05-07T02:17:59;23.20;;;12.70;;
56567;SDS011;42456;49.956;20.004;2023-05-07T02:20:28;27.10;;;12.40;;
56567;SDS011;42456;49.956;20.004;2023-05-07T02:22:55;21.70;;;12.20;;
56567;SDS011;42456;49.956;20.004;2023-05-07T02:25:22;21.50;;;11.20;;
56567;SDS011;42456;49.956;20.004;2023-05-07T02:27:49;20.30;;;12.00;;
56567;SDS011;42456;49.956;20.004;2023-05-07T02:30:16;25.20;;;12.50;;
56567;SDS011;42456;49.956;20.004;2023-05-07T02:32:43;20.70;;;11.00;;
56567;SDS011;42456;49.956;20.004;2023-05-07T02:35:10;21.30;;;11.80;;
56567;SDS011;42456;49.956;20.004;2023-05-07T02:37:37;22.30;;;12.00;;
56567;SDS011;42456;49.956;20.004;2023-05-07T02:40:04;22.20;;;12.10;;
56567;SDS011;42456;49.956;20.004;2023-05-07T02:42:31;26.50;;;13.80;;
56567;SDS011;42456;49.956;20.004;2023-05-07T02:44:58;27.70;;;15.50;;
56567;SDS011;42456;49.956;20.004;2023-05-07T02:47:25;26.70;;;14.60;;
56567;SDS011;42456;49.956;20.004;2023-05-07T02:49:56;23.30;;;13.50;;
56567;SDS011;42456;49.956;20.004;2023-05-07T02:52:22;21.80;;;11.20;;
56567;SDS011;42456;49.956;20.004;2023-05-07T02:54:49;24.10;;;12.40;;
56567;SDS011;42456;49.956;20.004;2023-05-07T02:57:16;25.80;;;13.00;;
56567;SDS011;42456;49.956;20.004;2023-05-07T02:59:44;21.60;;;10.80;;
56567;SDS011;42456;49.956;20.004;2023-05-07T03:02:10;21.00;;;10.50;;
56567;SDS011;42456;49.956;20.004;2023-05-07T03:04:39;19.40;;;10.70;;
56567;SDS011;42456;49.956;20.004;2023-05-07T03:07:06;19.20;;;11.20;;
56567;SDS011;42456;49.956;20.004;2023-05-07T03:09:33;18.20;;;10.10;;
56567;SDS011;42456;49.956;20.004;2023-05-07T03:12:00;19.40;;;9.40;;
56567;SDS011;42456;49.956;20.004;2023-05-07T03:14:28;16.80;;;8.50;;
56567;SDS011;42456;49.956;20.004;2023-05-07T03:16:54;16.90;;;8.80;;
56567;SDS011;42456;49.956;20.004;2023-05-07T03:19:21;16.20;;;8.90;;
56567;SDS011;42456;49.956;20.004;2023-05-07T03:21:48;17.40;;;8.70;;
56567;SDS011;42456;49.956;20.004;2023-05-07T03:24:15;16.60;;;8.40;;
56567;SDS011;42456;49.956;20.004;2023-05-07T03:26:42;16.40;;;9.00;;
56567;SDS011;42456;49.956;20.004;2023-05-07T03:29:09;14.80;;;8.20;;
56567;SDS011;42456;49.956;20.004;2023-05-07T03:31:36;14.30;;;8.30;;
56567;SDS011;42456;49.956;20.004;2023-05-07T03:34:03;16.10;;;9.00;;
56567;SDS011;42456;49.956;20.004;2023-05-07T03:36:30;15.40;;;8.30;;
56567;SDS011;42456;49.956;20.004;2023-05-07T03:38:57;15.40;;;8.20;;
56567;SDS011;42456;49.956;20.004;2023-05-07T03:41:24;18.30;;;9.40;;
56567;SDS011;42456;49.956;20.004;2023-05-07T03:43:52;19.10;;;9.60;;
56567;SDS011;42456;49.956;20.004;2023-05-07T03:46:19;17.10;;;9.10;;
56567;SDS011;42456;49.956;20.004;2023-05-07T03:48:46;19.50;;;9.30;;
56567;SDS011;42456;49.956;20.004;2023-05-07T03:51:13;16.20;;;8.50;;
56567;SDS011;42456;49.956;20.004;2023-05-07T03:53:40;16.30;;;9.00;;
56567;SDS011;42456;49.956;20.004;2023-05-07T03:56:07;17.50;;;8.80;;
56567;SDS011;42456;49.956;20.004;2023-05-07T03:58:34;15.80;;;8.20;;
56567;SDS011;42456;49.956;20.004;2023-05-07T04:01:01;14.30;;;7.60;;
56567;SDS011;42456;49.956;20.004;2023-05-07T04:03:28;12.40;;;6.50;;
56567;SDS011;42456;49.956;20.004;2023-05-07T04:05:56;9.60;;;5.70;;
56567;SDS011;42456;49.956;20.004;2023-05-07T04:08:23;10.10;;;5.40;;
56567;SDS011;42456;49.956;20.004;2023-05-07T04:10:54;10.50;;;5.20;;
56567;SDS011;42456;49.956;20.004;2023-05-07T04:13:21;7.70;;;4.40;;
56567;SDS011;42456;49.956;20.004;2023-05-07T04:15:49;9.70;;;5.40;;
56567;SDS011;42456;49.956;20.004;2023-05-07T04:18:16;9.10;;;4.70;;
56567;SDS011;42456;49.956;20.004;2023-05-07T04:20:43;10.70;;;5.30;;
56567;SDS011;42456;49.956;20.004;2023-05-07T04:23:10;7.70;;;4.30;;
56567;SDS011;42456;49.956;20.004;2023-05-07T04:25:37;8.00;;;4.00;;
56567;SDS011;42456;49.956;20.004;2023-05-07T04:28:04;7.50;;;4.40;;
56567;SDS011;42456;49.956;20.004;2023-05-07T04:30:31;9.00;;;4.70;;
56567;SDS011;42456;49.956;20.004;2023-05-07T04:32:58;9.20;;;4.90;;
56567;SDS011;42456;49.956;20.004;2023-05-07T04:35:25;6.70;;;4.50;;
56567;SDS011;42456;49.956;20.004;2023-05-07T04:37:52;7.30;;;4.40;;
56567;SDS011;42456;49.956;20.004;2023-05-07T04:40:18;7.70;;;3.90;;
56567;SDS011;42456;49.956;20.004;2023-05-07T04:42:46;6.70;;;3.70;;
56567;SDS011;42456;49.956;20.004;2023-05-07T04:45:13;6.40;;;3.50;;
56567;SDS011;42456;49.956;20.004;2023-05-07T04:47:40;6.70;;;3.50;;
56567;SDS011;42456;49.956;20.004;2023-05-07T04:50:07;6.20;;;3.60;;
56567;SDS011;42456;49.956;20.004;2023-05-07T04:52:35;6.00;;;3.80;;
56567;SDS011;42456;49.956;20.004;2023-05-07T04:55:02;7.10;;;4.60;;
56567;SDS011;42456;49.956;20.004;2023-05-07T04:57:29;9.00;;;4.20;;
56567;SDS011;42456;49.956;20.004;2023-05-07T04:59:56;5.70;;;3.70;;
56567;SDS011;42456;49.956;20.004;2023-05-07T05:02:24;8.00;;;4.70;;
56567;SDS011;42456;49.956;20.004;2023-05-07T05:04:51;7.60;;;4.70;;
56567;SDS011;42456;49.956;20.004;2023-05-07T05:07:18;7.90;;;5.00;;
56567;SDS011;42456;49.956;20.004;2023-05-07T05:09:45;8.30;;;4.90;;
56567;SDS011;42456;49.956;20.004;2023-05-07T05:12:12;7.40;;;4.40;;
56567;SDS011;42456;49.956;20.004;2023-05-07T05:14:38;8.50;;;4.50;;
56567;SDS011;42456;49.956;20.004;2023-05-07T05:17:05;7.50;;;4.40;;
56567;SDS011;42456;49.956;20.004;2023-05-07T05:19:32;8.40;;;4.60;;
56567;SDS011;42456;49.956;20.004;2023-05-07T05:21:59;7.00;;;3.90;;
56567;SDS011;42456;49.956;20.004;2023-05-07T05:24:27;5.20;;;4.00;;
56567;SDS011;42456;49.956;20.004;2023-05-07T05:26:54;5.60;;;4.00;;
56567;SDS011;42456;49.956;20.004;2023-05-07T05:29:21;6.20;;;4.10;;
56567;SDS011;42456;49.956;20.004;2023-05-07T05:31:49;5.70;;;3.90;;
56567;SDS011;42456;49.956;20.004;2023-05-07T05:34:15;5.50;;;3.70;;
56567;SDS011;42456;49.956;20.004;2023-05-07T05:36:44;6.40;;;4.20;;
56567;SDS011;42456;49.956;20.004;2023-05-07T05:39:11;6.20;;;3.90;;
56567;SDS011;42456;49.956;20.004;2023-05-07T05:41:37;10.20;;;5.20;;
56567;SDS011;42456;49.956;20.004;2023-05-07T05:44:04;7.90;;;4.90;;
56567;SDS011;42456;49.956;20.004;2023-05-07T05:46:31;11.10;;;5.80;;
56567;SDS011;42456;49.956;20.004;2023-05-07T05:49:02;8.80;;;5.40;;
56567;SDS011;42456;49.956;20.004;2023-05-07T05:51:29;10.60;;;5.20;;
56567;SDS011;42456;49.956;20.004;2023-05-07T05:53:56;10.10;;;6.00;;
56567;SDS011;42456;49.956;20.004;2023-05-07T05:56:23;12.20;;;6.50;;
56567;SDS011;42456;49.956;20.004;2023-05-07T05:58:50;12.30;;;6.20;;
56567;SDS011;42456;49.956;20.004;2023-05-07T06:01:17;11.70;;;6.40;;
56567;SDS011;42456;49.956;20.004;2023-05-07T06:03:45;12.80;;;6.10;;
56567;SDS011;42456;49.956;20.004;2023-05-07T06:06:12;10.90;;;5.50;;
56567;SDS011;42456;49.956;20.004;2023-05-07T06:08:41;14.70;;;7.10;;
56567;SDS011;42456;49.956;20.004;2023-05-07T06:11:08;9.70;;;6.30;;
56567;SDS011;42456;49.956;20.004;2023-05-07T06:13:35;13.80;;;6.40;;
56567;SDS011;42456;49.956;20.004;2023-05-07T06:16:02;9.40;;;5.80;;
56567;SDS011;42456;49.956;20.004;2023-05-07T06:18:29;6.40;;;4.30;;
56567;SDS011;42456;49.956;20.004;2023-05-07T06:20:57;6.60;;;3.50;;
56567;SDS011;42456;49.956;20.004;2023-05-07T06:23:24;4.60;;;2.80;;
56567;SDS011;42456;49.956;20.004;2023-05-07T06:25:51;3.60;;;2.60;;
56567;SDS011;42456;49.956;20.004;2023-05-07T06:28:18;9.20;;;3.40;;
56567;SDS011;42456;49.956;20.004;2023-05-07T06:30:45;4.30;;;2.90;;
56567;SDS011;42456;49.956;20.004;2023-05-07T06:33:11;5.70;;;3.20;;
56567;SDS011;42456;49.956;20.004;2023-05-07T06:35:38;6.50;;;3.00;;
56567;SDS011;42456;49.956;20.004;2023-05-07T06:38:05;4.20;;;2.80;;
56567;SDS011;42456;49.956;20.004;2023-05-07T06:40:32;6.00;;;3.40;;
56567;SDS011;42456;49.956;20.004;2023-05-07T06:42:59;3.70;;;3.00;;
56567;SDS011;42456;49.956;20.004;2023-05-07T06:45:26;5.50;;;2.80;;
56567;SDS011;42456;49.956;20.004;2023-05-07T06:47:52;6.30;;;3.10;;
56567;SDS011;42456;49.956;20.004;2023-05-07T06:50:20;4.80;;;2.80;;
56567;SDS011;42456;49.956;20.004;2023-05-07T06:52:47;5.80;;;3.20;;
56567;SDS011;42456;49.956;20.004;2023-05-07T06:55:14;4.40;;;2.70;;
56567;SDS011;42456;49.956;20.004;2023-05-07T06:57:41;4.10;;;2.60;;
56567;SDS011;42456;49.956;20.004;2023-05-07T07:00:08;6.00;;;3.00;;
56567;SDS011;42456;49.956;20.004;2023-05-07T07:02:37;3.80;;;2.60;;
56567;SDS011;42456;49.956;20.004;2023-05-07T07:05:04;5.80;;;3.00;;
56567;SDS011;42456;49.956;20.004;2023-05-07T07:07:31;5.60;;;2.80;;
56567;SDS011;42456;49.956;20.004;2023-05-07T07:09:58;5.70;;;3.00;;
56567;SDS011;42456;49.956;20.004;2023-05-07T07:12:25;4.30;;;3.30;;
56567;SDS011;42456;49.956;20.004;2023-05-07T07:14:52;3.70;;;2.60;;
56567;SDS011;42456;49.956;20.004;2023-05-07T07:17:20;4.70;;;3.20;;
56567;SDS011;42456;49.956;20.004;2023-05-07T07:19:47;4.40;;;2.90;;
56567;SDS011;42456;49.956;20.004;2023-05-07T07:22:14;5.20;;;2.90;;
56567;SDS011;42456;49.956;20.004;2023-05-07T07:24:41;4.30;;;3.00;;
56567;SDS011;42456;49.956;20.004;2023-05-07T07:27:08;6.40;;;3.00;;
56567;SDS011;42456;49.956;20.004;2023-05-07T07:29:35;6.90;;;3.60;;
56567;SDS011;42456;49.956;20.004;2023-05-07T07:32:02;6.20;;;3.70;;
56567;SDS011;42456;49.956;20.004;2023-05-07T07:34:29;4.20;;;3.00;;
56567;SDS011;42456;49.956;20.004;2023-05-07T07:36:56;4.60;;;2.90;;
56567;SDS011;42456;49.956;20.004;2023-05-07T07:39:23;5.10;;;2.90;;
56567;SDS011;42456;49.956;20.004;2023-05-07T07:41:50;4.50;;;3.30;;
56567;SDS011;42456;49.956;20.004;2023-05-07T07:44:17;4.50;;;3.00;;
56567;SDS011;42456;49.956;20.004;2023-05-07T07:46:44;4.20;;;2.70;;
56567;SDS011;42456;49.956;20.004;2023-05-07T07:49:11;3.30;;;2.80;;
56567;SDS011;42456;49.956;20.004;2023-05-07T07:51:38;3.00;;;2.30;;
56567;SDS011;42456;49.956;20.004;2023-05-07T07:54:05;6.20;;;3.00;;
56567;SDS011;42456;49.956;20.004;2023-05-07T07:56:32;4.80;;;2.80;;
56567;SDS011;42456;49.956;20.004;2023-05-07T07:59:00;4.10;;;2.80;;
56567;SDS011;42456;49.956;20.004;2023-05-07T08:01:31;3.60;;;2.60;;
56567;SDS011;42456;49.956;20.004;2023-05-07T08:03:58;5.40;;;3.60;;
56567;SDS011;42456;49.956;20.004;2023-05-07T08:06:26;5.20;;;2.90;;
56567;SDS011;42456;49.956;20.004;2023-05-07T08:08:53;3.90;;;2.80;;
56567;SDS011;42456;49.956;20.004;2023-05-07T08:11:20;3.50;;;2.60;;
56567;SDS011;42456;49.956;20.004;2023-05-07T08:13:47;5.50;;;2.80;;
56567;SDS011;42456;49.956;20.004;2023-05-07T08:16:14;5.20;;;3.20;;
56567;SDS011;42456;49.956;20.004;2023-05-07T08:18:42;4.10;;;3.20;;
56567;SDS011;42456;49.956;20.004;2023-05-07T08:21:09;4.90;;;3.40;;
56567;SDS011;42456;49.956;20.004;2023-05-07T08:23:36;4.10;;;3.10;;
56567;SDS011;42456;49.956;20.004;2023-05-07T08:26:03;4.80;;;3.40;;
56567;SDS011;42456;49.956;20.004;2023-05-07T08:28:29;5.00;;;3.20;;
56567;SDS011;42456;49.956;20.004;2023-05-07T08:30:56;5.70;;;3.50;;
56567;SDS011;42456;49.956;20.004;2023-05-07T08:33:26;6.20;;;3.30;;
56567;SDS011;42456;49.956;20.004;2023-05-07T08:35:53;4.20;;;3.20;;
56567;SDS011;42456;49.956;20.004;2023-05-07T08:38:20;5.40;;;3.60;;
56567;SDS011;42456;49.956;20.004;2023-05-07T08:40:47;8.00;;;4.70;;
56567;SDS011;42456;49.956;20.004;2023-05-07T08:43:14;9.80;;;4.60;;
56567;SDS011;42456;49.956;20.004;2023-05-07T08:45:41;9.40;;;5.40;;
56567;SDS011;42456;49.956;20.004;2023-05-07T08:48:15;9.00;;;4.70;;
56567;SDS011;42456;49.956;20.004;2023-05-07T08:50:43;7.70;;;4.10;;
56567;SDS011;42456;49.956;20.004;2023-05-07T08:53:10;6.30;;;3.80;;
56567;SDS011;42456;49.956;20.004;2023-05-07T08:55:38;7.60;;;4.10;;
56567;SDS011;42456;49.956;20.004;2023-05-07T08:58:06;6.60;;;4.50;;
56567;SDS011;42456;49.956;20.004;2023-05-07T09:00:33;6.80;;;4.60;;
56567;SDS011;42456;49.956;20.004;2023-05-07T09:03:01;6.30;;;4.50;;
56567;SDS011;42456;49.956;20.004;2023-05-07T09:05:28;7.30;;;4.80;;
56567;SDS011;42456;49.956;20.004;2023-05-07T09:07:55;9.40;;;5.40;;
56567;SDS011;42456;49.956;20.004;2023-05-07T09:10:26;9.70;;;5.50;;
56567;SDS011;42456;49.956;20.004;2023-05-07T09:12:52;8.50;;;5.10;;
56567;SDS011;42456;49.956;20.004;2023-05-07T09:15:20;8.00;;;4.70;;
56567;SDS011;42456;49.956;20.004;2023-05-07T09:17:46;6.70;;;4.80;;
56567;SDS011;42456;49.956;20.004;2023-05-07T09:20:13;10.70;;;5.30;;
56567;SDS011;42456;49.956;20.004;2023-05-07T09:22:40;5.80;;;3.90;;
56567;SDS011;42456;49.956;20.004;2023-05-07T09:25:07;8.70;;;4.10;;
56567;SDS011;42456;49.956;20.004;2023-05-07T09:27:36;7.10;;;4.20;;
56567;SDS011;42456;49.956;20.004;2023-05-07T09:30:05;8.80;;;4.70;;
56567;SDS011;42456;49.956;20.004;2023-05-07T09:32:35;8.20;;;4.60;;
56567;SDS011;42456;49.956;20.004;2023-05-07T09:35:04;7.60;;;5.00;;
56567;SDS011;42456;49.956;20.004;2023-05-07T09:37:32;9.10;;;4.80;;
56567;SDS011;42456;49.956;20.004;2023-05-07T09:39:59;8.50;;;4.50;;
56567;SDS011;42456;49.956;20.004;2023-05-07T09:42:26;6.50;;;4.30;;
56567;SDS011;42456;49.956;20.004;2023-05-07T09:44:54;6.60;;;4.60;;
56567;SDS011;42456;49.956;20.004;2023-05-07T09:47:23;8.40;;;5.00;;
56567;SDS011;42456;49.956;20.004;2023-05-07T09:49:53;7.50;;;4.70;;
56567;SDS011;42456;49.956;20.004;2023-05-07T09:52:23;7.40;;;4.70;;
56567;SDS011;42456;49.956;20.004;2023-05-07T09:54:51;7.40;;;4.60;;
56567;SDS011;42456;49.956;20.004;2023-05-07T09:57:21;6.40;;;4.20;;
56567;SDS011;42456;49.956;20.004;2023-05-07T09:59:50;8.20;;;5.50;;
56567;SDS011;42456;49.956;20.004;2023-05-07T10:02:20;10.20;;;6.10;;
56567;SDS011;42456;49.956;20.004;2023-05-07T10:04:48;11.00;;;6.50;;
56567;SDS011;42456;49.956;20.004;2023-05-07T10:07:16;10.00;;;6.10;;
56567;SDS011;42456;49.956;20.004;2023-05-07T10:09:44;10.50;;;6.30;;
56567;SDS011;42456;49.956;20.004;2023-05-07T10:12:14;11.30;;;6.80;;
56567;SDS011;42456;49.956;20.004;2023-05-07T10:14:43;9.70;;;5.60;;
56567;SDS011;42456;49.956;20.004;2023-05-07T10:17:12;13.40;;;7.40;;
56567;SDS011;42456;49.956;20.004;2023-05-07T10:19:43;12.60;;;7.00;;
56567;SDS011;42456;49.956;20.004;2023-05-07T10:22:11;12.90;;;7.20;;
56567;SDS011;42456;49.956;20.004;2023-05-07T10:24:40;12.20;;;7.10;;
56567;SDS011;42456;49.956;20.004;2023-05-07T10:27:09;12.90;;;7.30;;
56567;SDS011;42456;49.956;20.004;2023-05-07T10:29:42;13.80;;;7.90;;
56567;SDS011;42456;49.956;20.004;2023-05-07T10:32:30;12.70;;;7.60;;
56567;SDS011;42456;49.956;20.004;2023-05-07T10:34:59;13.40;;;7.60;;
56567;SDS011;42456;49.956;20.004;2023-05-07T10:37:29;13.70;;;8.10;;
56567;SDS011;42456;49.956;20.004;2023-05-07T10:39:57;14.20;;;8.00;;
56567;SDS011;42456;49.956;20.004;2023-05-07T10:42:24;12.30;;;6.90;;
56567;SDS011;42456;49.956;20.004;2023-05-07T10:44:51;12.10;;;6.90;;
56567;SDS011;42456;49.956;20.004;2023-05-07T10:47:18;10.00;;;5.40;;
56567;SDS011;42456;49.956;20.004;2023-05-07T10:52:19;10.00;;;5.20;;
56567;SDS011;42456;49.956;20.004;2023-05-07T10:57:45;11.00;;;6.50;;
56567;SDS011;42456;49.956;20.004;2023-05-07T11:05:27;11.00;;;6.80;;
56567;SDS011;42456;49.956;20.004;2023-05-07T11:07:56;13.40;;;7.10;;
56567;SDS011;42456;49.956;20.004;2023-05-07T11:10:46;10.70;;;6.80;;
56567;SDS011;42456;49.956;20.004;2023-05-07T11:13:14;10.70;;;6.50;;
56567;SDS011;42456;49.956;20.004;2023-05-07T11:15:46;12.70;;;7.40;;
56567;SDS011;42456;49.956;20.004;2023-05-07T11:18:15;10.60;;;6.30;;
56567;SDS011;42456;49.956;20.004;2023-05-07T11:20:46;10.50;;;6.30;;
56567;SDS011;42456;49.956;20.004;2023-05-07T11:26:00;11.70;;;7.00;;
56567;SDS011;42456;49.956;20.004;2023-05-07T11:28:40;11.10;;;6.30;;
56567;SDS011;42456;49.956;20.004;2023-05-07T11:31:08;12.60;;;7.10;;
56567;SDS011;42456;49.956;20.004;2023-05-07T11:33:36;11.60;;;6.90;;
56567;SDS011;42456;49.956;20.004;2023-05-07T11:36:05;11.30;;;6.50;;
56567;SDS011;42456;49.956;20.004;2023-05-07T11:38:34;11.60;;;6.40;;
56567;SDS011;42456;49.956;20.004;2023-05-07T11:41:02;13.60;;;6.40;;
56567;SDS011;42456;49.956;20.004;2023-05-07T11:43:31;11.20;;;6.20;;
56567;SDS011;42456;49.956;20.004;2023-05-07T11:46:07;10.00;;;6.40;;
56567;SDS011;42456;49.956;20.004;2023-05-07T11:48:35;10.80;;;6.40;;
56567;SDS011;42456;49.956;20.004;2023-05-07T11:51:03;9.00;;;5.50;;
56567;SDS011;42456;49.956;20.004;2023-05-07T11:53:35;8.40;;;5.30;;
56567;SDS011;42456;49.956;20.004;2023-05-07T11:56:14;8.30;;;4.90;;
56567;SDS011;42456;49.956;20.004;2023-05-07T11:58:43;7.40;;;5.00;;
56567;SDS011;42456;49.956;20.004;2023-05-07T12:01:12;8.00;;;5.20;;
56567;SDS011;42456;49.956;20.004;2023-05-07T12:03:40;8.60;;;4.40;;
56567;SDS011;42456;49.956;20.004;2023-05-07T12:06:13;9.90;;;5.20;;
56567;SDS011;42456;49.956;20.004;2023-05-07T12:08:42;7.40;;;4.60;;
56567;SDS011;42456;49.956;20.004;2023-05-07T12:11:18;8.40;;;4.60;;
56567;SDS011;42456;49.956;20.004;2023-05-07T12:13:49;7.60;;;4.40;;
56567;SDS011;42456;49.956;20.004;2023-05-07T12:16:16;6.80;;;4.00;;
56567;SDS011;42456;49.956;20.004;2023-05-07T12:18:44;7.30;;;4.30;;
56567;SDS011;42456;49.956;20.004;2023-05-07T12:21:12;6.70;;;3.60;;
56567;SDS011;42456;49.956;20.004;2023-05-07T12:23:39;6.90;;;4.20;;
56567;SDS011;42456;49.956;20.004;2023-05-07T12:26:06;8.30;;;3.90;;
56567;SDS011;42456;49.956;20.004;2023-05-07T12:28:38;6.80;;;4.10;;
56567;SDS011;42456;49.956;20.004;2023-05-07T12:31:05;6.00;;;4.00;;
56567;SDS011;42456;49.956;20.004;2023-05-07T12:33:34;5.00;;;3.70;;
56567;SDS011;42456;49.956;20.004;2023-05-07T12:36:08;4.90;;;3.60;;
56567;SDS011;42456;49.956;20.004;2023-05-07T12:38:36;6.10;;;3.70;;
56567;SDS011;42456;49.956;20.004;2023-05-07T12:41:04;5.20;;;3.50;;
56567;SDS011;42456;49.956;20.004;2023-05-07T12:43:33;4.50;;;3.30;;
56567;SDS011;42456;49.956;20.004;2023-05-07T12:46:01;4.40;;;3.20;;
56567;SDS011;42456;49.956;20.004;2023-05-07T12:48:31;3.80;;;3.00;;
56567;SDS011;42456;49.956;20.004;2023-05-07T12:51:01;5.80;;;3.20;;
56567;SDS011;42456;49.956;20.004;2023-05-07T12:53:29;4.30;;;3.30;;
56567;SDS011;42456;49.956;20.004;2023-05-07T12:55:58;4.70;;;3.50;;
56567;SDS011;42456;49.956;20.004;2023-05-07T12:58:27;6.10;;;3.90;;
56567;SDS011;42456;49.956;20.004;2023-05-07T13:01:00;7.20;;;3.80;;
56567;SDS011;42456;49.956;20.004;2023-05-07T13:03:31;6.40;;;3.80;;
56567;SDS011;42456;49.956;20.004;2023-05-07T13:06:08;5.10;;;3.60;;
56567;SDS011;42456;49.956;20.004;2023-05-07T13:08:37;5.80;;;3.50;;
56567;SDS011;42456;49.956;20.004;2023-05-07T13:11:10;5.30;;;3.70;;
56567;SDS011;42456;49.956;20.004;2023-05-07T13:13:38;5.30;;;3.80;;
56567;SDS011;42456;49.956;20.004;2023-05-07T13:16:08;5.50;;;3.70;;
56567;SDS011;42456;49.956;20.004;2023-05-07T13:18:37;5.40;;;3.80;;
56567;SDS011;42456;49.956;20.004;2023-05-07T13:21:06;5.80;;;3.70;;
56567;SDS011;42456;49.956;20.004;2023-05-07T13:23:33;5.30;;;3.60;;
56567;SDS011;42456;49.956;20.004;2023-05-07T13:26:00;5.50;;;3.60;;
56567;SDS011;42456;49.956;20.004;2023-05-07T13:28:36;6.20;;;3.70;;
56567;SDS011;42456;49.956;20.004;2023-05-07T13:31:03;6.00;;;4.10;;
56567;SDS011;42456;49.956;20.004;2023-05-07T13:33:30;6.80;;;3.80;;
56567;SDS011;42456;49.956;20.004;2023-05-07T13:35:57;6.20;;;3.90;;
56567;SDS011;42456;49.956;20.004;2023-05-07T13:38:24;5.70;;;4.00;;
56567;SDS011;42456;49.956;20.004;2023-05-07T13:40:51;6.00;;;3.90;;
56567;SDS011;42456;49.956;20.004;2023-05-07T13:43:18;6.10;;;3.70;;
56567;SDS011;42456;49.956;20.004;2023-05-07T13:45:46;5.70;;;3.90;;
56567;SDS011;42456;49.956;20.004;2023-05-07T13:48:13;6.80;;;3.90;;
56567;SDS011;42456;49.956;20.004;2023-05-07T13:50:40;6.80;;;4.00;;
56567;SDS011;42456;49.956;20.004;2023-05-07T13:53:07;6.80;;;3.90;;
56567;SDS011;42456;49.956;20.004;2023-05-07T13:55:35;6.50;;;3.90;;
56567;SDS011;42456;49.956;20.004;2023-05-07T13:58:02;7.90;;;4.60;;
56567;SDS011;42456;49.956;20.004;2023-05-07T14:00:32;7.90;;;4.40;;
56567;SDS011;42456;49.956;20.004;2023-05-07T14:02:59;9.80;;;4.80;;
56567;SDS011;42456;49.956;20.004;2023-05-07T14:05:26;7.50;;;4.60;;
56567;SDS011;42456;49.956;20.004;2023-05-07T14:07:54;8.10;;;4.40;;
56567;SDS011;42456;49.956;20.004;2023-05-07T14:10:23;7.20;;;4.90;;
56567;SDS011;42456;49.956;20.004;2023-05-07T14:12:51;9.00;;;5.00;;
56567;SDS011;42456;49.956;20.004;2023-05-07T14:15:19;6.30;;;4.30;;
56567;SDS011;42456;49.956;20.004;2023-05-07T14:17:46;6.90;;;4.50;;
56567;SDS011;42456;49.956;20.004;2023-05-07T14:20:13;8.30;;;4.70;;
56567;SDS011;42456;49.956;20.004;2023-05-07T14:22:40;7.80;;;4.70;;
56567;SDS011;42456;49.956;20.004;2023-05-07T14:25:08;7.40;;;4.40;;
56567;SDS011;42456;49.956;20.004;2023-05-07T14:27:39;6.90;;;4.50;;
56567;SDS011;42456;49.956;20.004;2023-05-07T14:30:06;5.40;;;4.20;;
56567;SDS011;42456;49.956;20.004;2023-05-07T14:32:34;6.60;;;4.50;;
56567;SDS011;42456;49.956;20.004;2023-05-07T14:35:02;9.10;;;4.80;;
56567;SDS011;42456;49.956;20.004;2023-05-07T14:37:30;7.90;;;5.00;;
56567;SDS011;42456;49.956;20.004;2023-05-07T14:39:57;6.60;;;4.20;;
56567;SDS011;42456;49.956;20.004;2023-05-07T14:42:24;8.00;;;4.40;;
56567;SDS011;42456;49.956;20.004;2023-05-07T14:44:51;7.10;;;4.40;;